Home > Products > Valid Products > MTR

000
SAUS43 KAPX 220455
MTRAPN
METAR KAPN 220454Z AUTO 05007KT 10SM OVC024 04/M01 A3031 RMK AO2
SLP270 T00391006 400831011





000
SAUS43 KAPX 220355
MTRAPN
METAR KAPN 220354Z AUTO 03005KT 10SM OVC027 03/00 A3031 RMK AO2
SLP271 T00330000





000
SAUS43 KAPX 220355
MTRAPN
METAR KAPN 220354Z AUTO 03005KT 10SM OVC027 03/00 A3031 RMK AO2
SLP271 T00330000





000
SAUS43 KAPX 220256
MTRAPN
METAR KAPN 220254Z AUTO 00000KT 10SM OVC027 02/00 A3031 RMK AO2
SLP269 T00170000 51017





000
SAUS43 KAPX 220256
MTRAPN
METAR KAPN 220254Z AUTO 00000KT 10SM OVC027 02/00 A3031 RMK AO2
SLP269 T00170000 51017





000
SAUS43 KAPX 220226 COR
MTRAPN
SPECI KAPN 220217Z AUTO 34003KT 10SM BKN029 00/M02 A3030 RMK AO2
T00001017





000
SAUS43 KAPX 220226 COR
MTRAPN
SPECI KAPN 220217Z AUTO 34003KT 10SM BKN029 00/M02 A3030 RMK AO2
T00001017





000
SAUS43 KAPX 220219 COR
MTRAPN
SPECI KAPN 220217Z AUTO 34003KT 10SM BKN029 00/M02 A3030 RMK AO2
T00001017





000
SAUS43 KAPX 220219 COR
MTRAPN
SPECI KAPN 220217Z AUTO 34003KT 10SM BKN029 00/M02 A3030 RMK AO2
T00001017





000
SAUS43 KAPX 220157
MTRAPN
SLP265 T00001017





000
SAUS43 KAPX 220157
MTRAPN
SLP265 T00001017





000
SAUS43 KAPX 220156
MTRAPN
K@-A9)T
&L00KT 10SM SCT030 00/M02 A3029 RMK AO2
SLP265 T00001017





000
SAUS43 KAPX 220156
MTRAPN
K@-A9)T
&L00KT 10SM SCT030 00/M02 A3029 RMK AO2
SLP265 T00001017





000
SAUS43 KAPX 220055
MTRAPN
METAR KAPN 220054Z AUTO 36003KT 10SM CLR 01/M02 A3027 RMK AO2 SLP259
T00111017





000
SAUS43 KAPX 212355
MTRAPN
METAR KAPN 212354Z AUTO 01003KT 10SM CLR 02/M01 A3025 RMK AO2 SLP252
T00221011 10083 20011 53017





000
SAUS43 KAPX 212255
MTRAPN
METAR KAPN 212254Z AUTO 03006KT 10SM CLR 03/M02 A3023 RMK AO2 SLP245
T00281017





000
SAUS43 KAPX 212255
MTRAPN
METAR KAPN 212254Z AUTO 03006KT 10SM CLR 03/M02 A3023 RMK AO2 SLP245
T00281017





000
SAUS43 KAPX 212156
MTRAPN
METAR KAPN 212154Z AUTO 01012KT 10SM CLR 06/M01 A3022 RMK AO2 SLP238
T00611011





000
SAUS43 KAPX 212156
MTRAPN
METAR KAPN 212154Z AUTO 01012KT 10SM CLR 06/M01 A3022 RMK AO2 SLP238
T00611011





000
SAUS43 KAPX 212103 COR
MTRAPN
METAR KAPN 212054Z AUTO 35012G18KT 10SM CLR 07/M01 A3020 RMK AO2
SLP233 T00721006 53010





000
SAUS43 KAPX 212056 COR
MTRAPN
METAR KAPN 212054Z AUTO 35012G18KT 10SM CLR 07/M01 A3020 RMK AO2
SLP233 T00721006 53010





000
SAUS43 KAPX 211955
MTRAPN
METAR KAPN 211954Z AUTO 36017KT 10SM BKN033 08/M01 A3019 RMK AO2
SLP229 T00781006





000
SAUS43 KAPX 211855
MTRAPN
METAR KAPN 211854Z AUTO 36013KT 10SM FEW033 08/00 A3017 RMK AO2
SLP222 T00780000





000
SAUS43 KAPX 211755
MTRAPN
METAR KAPN 211754Z AUTO 36017G21KT 10SM BKN031 07/M01 A3017 RMK AO2
SLP222 T00721006 10078 20056 51012





000
SAUS43 KAPX 211713
MTRAPN
SPECI KAPN 211712Z AUTO 02015KT 10SM SCT030 BKN035 08/01 A3017 RMK
AO2 T00780006





000
SAUS43 KAPX 211655
MTRAPN
METAR KAPN 211654Z AUTO 01013KT 10SM BKN029 07/00 A3017 RMK AO2
SLP221 T00670000





000
SAUS43 KAPX 211655
MTRAPN
METAR KAPN 211654Z AUTO 01013KT 10SM BKN029 07/00 A3017 RMK AO2
SLP221 T00670000





000
SAUS43 KAPX 211645
MTRAPN
SPECI KAPN 211643Z AUTO 36014KT 10SM BKN029 07/01 A3017 RMK AO2
T00670006





000
SAUS43 KAPX 211634
MTRAPN
SPECI KAPN 211632Z AUTO 01016G20KT 10SM OVC030 07/01 A3017 RMK AO2
T00720006





000
SAUS43 KAPX 211604
MTRAPN
SPECI KAPN 211603Z AUTO 02014KT 10SM BKN027 OVC034 06/01 A3016 RMK
AO2 T00610006 TSNO





000
SAUS43 KAPX 211604
MTRAPN
SPECI KAPN 211603Z AUTO 02014KT 10SM BKN027 OVC034 06/01 A3016 RMK
AO2 T00610006 TSNO





000
SAUS43 KAPX 211557 COR
MTRAPN
METAR KAPN 211554Z AUTO 04015KT 10SM OVC032 06/01 A3016 RMK AO2
SLP217 T00610006





000
SAUS43 KAPX 211557 COR
MTRAPN
METAR KAPN 211554Z AUTO 04015KT 10SM OVC032 06/01 A3016 RMK AO2
SLP217 T00610006





000
SAUS43 KAPX 211547
MTRAPN
SPECI KAPN 211546Z AUTO 03016KT 10SM OVC031 06/00 A3015 RMK AO2
T00610000





000
SAUS43 KAPX 211547
MTRAPN
SPECI KAPN 211546Z AUTO 03016KT 10SM OVC031 06/00 A3015 RMK AO2
T00610000





000
SAUS43 KAPX 211456
MTRAPN
METAR KAPN 211454Z AUTO 04013G21KT 10SM BKN029 OVC034 06/01 A3013
RMK AO2 SLP210 T00610006 51024





000
SAUS43 KAPX 211421
MTRAPN
SPECI KAPN 211419Z AUTO 02015KT 10SM BKN028 06/01 A3013 RMK AO2
T00610006





000
SAUS43 KAPX 211355
MTRAPN
METAR KAPN 211354Z AUTO 03016G23KT 10SM CLR 06/01 A3011 RMK AO2
SLP203 T00610006





000
SAUS43 KAPX 211320
MTRAPN
SPECI KAPN 211318Z AUTO 02015KT 10SM FEW029 06/01 A3010 RMK AO2
T00610006 TSNO





000
SAUS43 KAPX 211255
MTRAPN
METAR KAPN 211254Z AUTO 03015KT 10SM BKN029 06/00 A3009 RMK AO2
SLP196 T00560000





000
SAUS43 KAPX 211155
MTRAPN
METAR KAPN 211154Z AUTO 02017G21KT 10SM OVC025 06/01 A3006 RMK AO2
SLP185 70001 T00560011 10072 20056 53030





000
SAUS43 KAPX 211155
MTRAPN
METAR KAPN 211154Z AUTO 02017G21KT 10SM OVC025 06/01 A3006 RMK AO2
SLP185 70001 T00560011 10072 20056 53030





000
SAUS43 KAPX 211055
MTRAPN
METAR KAPN 211054Z AUTO 02013KT 10SM BKN023 OVC028 06/03 A3003 RMK
AO2 SLP173 T00610028





000
SAUS43 KAPX 211055
MTRAPN
METAR KAPN 211054Z AUTO 02013KT 10SM BKN023 OVC028 06/03 A3003 RMK
AO2 SLP173 T00610028





000
SAUS43 KAPX 210955
MTRAPN
METAR KAPN 210954Z AUTO 02013KT 10SM OVC022 06/03 A3000 RMK AO2
SLP163 T00610028





000
SAUS43 KAPX 210955
MTRAPN
METAR KAPN 210954Z AUTO 02013KT 10SM OVC022 06/03 A3000 RMK AO2
SLP163 T00610028





000
SAUS43 KAPX 210855
MTRAPN
METAR KAPN 210854Z AUTO 02011KT 10SM OVC023 07/03 A2997 RMK AO2
SLP154 T00670033 53017





000
SAUS43 KAPX 210755
MTRAPN
METAR KAPN 210754Z AUTO 02014G19KT 10SM OVC019 07/04 A2995 RMK AO2
SLP147 T00670039





000
SAUS43 KAPX 210655
MTRAPN
METAR KAPN 210654Z AUTO 01011KT 10SM OVC021 07/05 A2994 RMK AO2
SLP140 T00720050





000
SAUS43 KAPX 210555
MTRAPN
METAR KAPN 210554Z AUTO 01009KT 10SM OVC023 07/06 A2992 RMK AO2
SLP135 60001 T00720056 10083 20072 51014





000
SAUS43 KAPX 210455
MTRAPN
METAR KAPN 210454Z AUTO 01009KT 10SM OVC022 07/06 A2991 RMK AO2
SLP134 T00720056 401110072





000
SAUS43 KAPX 210455
MTRAPN
METAR KAPN 210454Z AUTO 01009KT 10SM OVC022 07/06 A2991 RMK AO2
SLP134 T00720056 401110072





000
SAUS43 KAPX 210355
MTRAPN
METAR KAPN 210354Z AUTO 35008KT 10SM BKN023 OVC029 08/07 A2990 RMK
AO2 RAE04 SLP129 P0000 T00830067





000
SAUS43 KAPX 210355
MTRAPN
METAR KAPN 210354Z AUTO 35008KT 10SM BKN023 OVC029 08/07 A2990 RMK
AO2 RAE04 SLP129 P0000 T00830067





000
SAUS43 KAPX 210313
MTRAPN
SPECI KAPN 210311Z AUTO 33006KT 10SM FEW005 BKN025 OVC034 08/07
A2988 RMK AO2 RAE04 P0000 T00780072





000
SAUS43 KAPX 210313
MTRAPN
SPECI KAPN 210311Z AUTO 33006KT 10SM FEW005 BKN025 OVC034 08/07
A2988 RMK AO2 RAE04 P0000 T00780072





000
SAUS43 KAPX 210255
MTRAPN
METAR KAPN 210254Z AUTO 34011KT 4SM -RA BR BKN006 OVC011 08/07 A2988
RMK AO2 RAB39 CIG 004V008 SLP122 P0001 60001 T00780072 53009





000
SAUS43 KAPX 210155
MTRAPN
METAR KAPN 210154Z AUTO 31006KT 5SM BR BKN009 BKN013 OVC018 08/07
A2987 RMK AO2 RAB0058E21 SLP118 P0000 T00780067





000
SAUS43 KAPX 210155
MTRAPN
METAR KAPN 210154Z AUTO 31006KT 5SM BR BKN009 BKN013 OVC018 08/07
A2987 RMK AO2 RAB0058E21 SLP118 P0000 T00780067





000
SAUS43 KAPX 210141
MTRAPN
SPECI KAPN 210139Z AUTO 30006KT 9SM BKN009 BKN013 OVC023 08/07 A2987
RMK AO2 RAB0058E21 P0000 T00830067 TSNO





000
SAUS43 KAPX 210137
MTRAPN
SPECI KAPN 210135Z AUTO 30005KT 10SM BKN013 BKN018 OVC023 08/07
A2987 RMK AO2 RAB0058E21 P0000 T00830067





000
SAUS43 KAPX 210055
MTRAPN
METAR KAPN 210054Z AUTO 30005KT 10SM OVC019 08/07 A2986 RMK AO2
SLP115 T00830067





000
SAUS43 KAPX 202356
MTRAPN
METAR KAPN 202354Z AUTO VRB05KT 10SM SCT021 BKN025 OVC036 08/07
A2985 RMK AO2 SLP112 T00830072 10111 20083 53022





000
SAUS43 KAPX 202323
MTRAPN
SPECI KAPN 202322Z AUTO 31004KT 10SM FEW012 BKN020 OVC032 09/07
A2984 RMK AO2 T00890072





000
SAUS43 KAPX 202307
MTRAPN
SPECI KAPN 202306Z AUTO 30004KT 10SM SCT014 SCT024 OVC032 09/07
A2983 RMK AO2 T00890072





000
SAUS43 KAPX 202255
MTRAPN
METAR KAPN 202254Z AUTO 30004KT 10SM BKN014 OVC026 09/07 A2983 RMK
AO2 SLP104 T00890072





000
SAUS43 KAPX 202242
MTRAPN
SPECI KAPN 202241Z AUTO 31003KT 9SM OVC014 09/07 A2982 RMK AO2
T00890072





000
SAUS43 KAPX 202155
MTRAPN
METAR KAPN 202154Z AUTO 29005KT 10SM FEW012 BKN022 OVC026 09/08
A2981 RMK AO2 SLP097 T00890078 TSNO





000
SAUS43 KAPX 202155
MTRAPN
METAR KAPN 202154Z AUTO 29005KT 10SM FEW012 BKN022 OVC026 09/08
A2981 RMK AO2 SLP097 T00890078 TSNO





000
SAUS43 KAPX 202152 COR
MTRAPN
SPECI KAPN 202150Z AUTO 31004KT 8SM FEW008 BKN022 OVC026 09/08 A2981
RMK AO2





000
SAUS43 KAPX 202152 COR
MTRAPN
SPECI KAPN 202150Z AUTO 31004KT 8SM FEW008 BKN022 OVC026 09/08 A2981
RMK AO2





000
SAUS43 KAPX 202055
MTRAPN
METAR KAPN 202054Z AUTO 30005KT 8SM OVC011 09/07 A2979 RMK AO2
SLP090 T00940072 53011





000
SAUS43 KAPX 202045
MTRAPN
SPECI KAPN 202044Z AUTO 30006KT 10SM OVC013 09/07 A2978 RMK AO2
T00940072





000
SAUS43 KAPX 201955
MTRAPN
METAR KAPN 201954Z AUTO 31007KT 10SM OVC019 10/07 A2977 RMK AO2
SLP085 T01000067





000
SAUS43 KAPX 201856
MTRAPN
METAR KAPN 201854Z AUTO 31005KT 10SM BKN017 OVC024 11/08 A2975 RMK
AO2 SLP078 T01110083





000
SAUS43 KAPX 201841
MTRAPN
SPECI KAPN 201840Z AUTO 32006KT 10SM BKN016 OVC021 11/08 A2975 RMK
AO2 T01110083





000
SAUS43 KAPX 201832
MTRAPN
SPECI KAPN 201830Z AUTO 31005KT 10SM BKN013 BKN018 OVC024 11/09
A2975 RMK AO2 T01110089





000
SAUS43 KAPX 201803 COR
MTRAPN
METAR KAPN 201754Z AUTO 31003KT 10SM FEW011 OVC019 11/09 A2975 RMK
AO2 SLP078 T01110089 10111 20078 56003 TSNO





000
SAUS43 KAPX 201756 COR
MTRAPN
METAR KAPN 201754Z AUTO 31003KT 10SM FEW011 OVC019 11/09 A2975 RMK
AO2 SLP078 T01110089 10111 20078 56003 TSNO





000
SAUS43 KAPX 201751
MTRAPN
SPECI KAPN 201750Z AUTO VRB03KT 10SM SCT010 OVC019 11/09 A2975 RMK
AO2





000
SAUS43 KAPX 201656
MTRAPN
METAR KAPN 201654Z AUTO 29003KT 10SM BKN012 OVC017 11/09 A2976 RMK
AO2 SLP081 T01060089





000
SAUS43 KAPX 201642
MTRAPN
SPECI KAPN 201640Z AUTO 00000KT 10SM BKN015 OVC060 10/08 A2976 RMK
AO2 T01000083





000
SAUS43 KAPX 201555
MTRAPN
METAR KAPN 201554Z AUTO 21003KT 8SM FEW044 OVC055 09/08 A2976 RMK
AO2 SLP082 T00940083





000
SAUS43 KAPX 201504 COR
MTRAPN
METAR KAPN 201454Z AUTO 22003KT 9SM FEW031 OVC055 09/08 A2977 RMK
AO2 SLP083 T00890078 51005





000
SAUS43 KAPX 201503 COR
MTRAPN
METAR KAPN 201454Z AUTO 22003KT 9SM FEW031 OVC055 09/08 A2977 RMK
AO2 SLP083 T00890078 51005





000
SAUS43 KAPX 201456 COR
MTRAPN
METAR KAPN 201454Z AUTO 22003KT 9SM FEW031 OVC055 09/08 A2977 RMK
AO2 SLP083 T00890078 51005





000
SAUS43 KAPX 201355
MTRAPN
METAR KAPN 201354Z AUTO 22005KT 8SM FEW027 OVC055 08/07 A2976 RMK
AO2 SLP082 T00830072





000
SAUS43 KAPX 201255
MTRAPN
METAR KAPN 201254Z AUTO 22004KT 7SM OVC050 08/07 A2976 RMK AO2
SLP080 T00780072





000
SAUS43 KAPX 201155
MTRAPN
METAR KAPN 201154Z AUTO 20003KT 9SM OVC049 08/07 A2975 RMK AO2 RAE05
SLP078 P0001 60003 70003 T00780067 10078 20072 55006





000
SAUS43 KAPX 201055
MTRAPN
METAR KAPN 201054Z AUTO 20006KT 8SM -RA OVC050 08/06 A2975 RMK AO2
RAE17B51 SLP077 P0000 T00780061





000
SAUS43 KAPX 200955
MTRAPN
METAR KAPN 200954Z AUTO 21004KT 10SM -RA OVC031 08/06 A2976 RMK AO2
RAB07 SLP082 P0002 T00780061





000
SAUS43 KAPX 200955
MTRAPN
METAR KAPN 200954Z AUTO 21004KT 10SM -RA OVC031 08/06 A2976 RMK AO2
RAB07 SLP082 P0002 T00780061





000
SAUS43 KAPX 200855
MTRAPN
METAR KAPN 200854Z AUTO 21005KT 10SM SCT037 OVC048 08/06 A2977 RMK
AO2 SLP084 60000 T00780056 56016





000
SAUS43 KAPX 200755
MTRAPN
METAR KAPN 200754Z AUTO 20004KT 10SM OVC037 08/05 A2977 RMK AO2
RAE0658 SLP086 P0000 T00780050





000
SAUS43 KAPX 200655
MTRAPN
METAR KAPN 200654Z AUTO 19006KT 10SM -RA OVC034 07/06 A2980 RMK AO2
RAB43 SLP094 P0000 T00720056





000
SAUS43 KAPX 200555
MTRAPN
METAR KAPN 200554Z AUTO 19007KT 10SM OVC039 08/05 A2981 RMK AO2
SLP099 60000 T00780050 10083 20072 56026





000
SAUS43 KAPX 200455
MTRAPN
METAR KAPN 200454Z AUTO 18006KT 10SM OVC041 07/05 A2983 RMK AO2
RAE34 SLP107 P0000 T00720050 400940000





000
SAUS43 KAPX 200355
MTRAPN
METAR KAPN 200354Z AUTO 20005KT 10SM -RA OVC065 08/04 A2987 RMK AO2
RAB41 SLP118 P0000 T00780044





000
SAUS43 KAPX 200255
MTRAPN
METAR KAPN 200254Z AUTO 18004KT 10SM OVC080 08/03 A2989 RMK AO2
SLP127 60000 T00830033 56011





000
SAUS43 KAPX 200155
MTRAPN
METAR KAPN 200154Z AUTO 17006KT 10SM OVC060 08/04 A2990 RMK AO2
RAB0059E08B40E52 SLP131 P0000 T00780039





000
SAUS43 KAPX 200055
MTRAPN
METAR KAPN 200054Z AUTO 16005KT 10SM OVC075 07/03 A2991 RMK AO2
SLP133 T00720028





000
SAUS43 KAPX 192355
MTRAPN
METAR KAPN 192354Z AUTO 16005KT 10SM OVC100 07/03 A2992 RMK AO2
SLP139 T00720028 10094 20072 56020





000
SAUS43 KAPX 192355
MTRAPN
METAR KAPN 192354Z AUTO 16005KT 10SM OVC100 07/03 A2992 RMK AO2
SLP139 T00720028 10094 20072 56020





000
SAUS43 KAPX 192256
MTRAPN
METAR KAPN 192254Z AUTO 13005KT 10SM BKN085 OVC100 07/03 A2993 RMK
AO2 SLP142 T00720033





000
SAUS43 KAPX 192256
MTRAPN
METAR KAPN 192254Z AUTO 13005KT 10SM BKN085 OVC100 07/03 A2993 RMK
AO2 SLP142 T00720033





000
SAUS43 KAPX 192155
MTRAPN
METAR KAPN 192154Z AUTO 17005KT 10SM BKN120 09/01 A2996 RMK AO2
SLP152 T00890011





000
SAUS43 KAPX 192055
MTRAPN
METAR KAPN 192054Z AUTO 23003KT 10SM CLR 09/M01 A2999 RMK AO2 SLP159
T00941006 56025





000
SAUS43 KAPX 191955
MTRAPN
METAR KAPN 191954Z AUTO 22006KT 10SM CLR 09/01 A3001 RMK AO2 SLP168
T00940006





000
SAUS43 KAPX 191855
MTRAPN
METAR KAPN 191854Z AUTO 24006KT 10SM CLR 08/M01 A3003 RMK AO2 SLP175
T00831006





000
SAUS43 KAPX 191755
MTRAPN
METAR KAPN 191754Z AUTO 26006KT 10SM CLR 08/00 A3006 RMK AO2 SLP184
T00780000 10083 20000 58022





000
SAUS43 KAPX 191655
MTRAPN
METAR KAPN 191654Z AUTO 28004KT 10SM FEW027 07/M01 A3010 RMK AO2
SLP199 T00671006





000
SAUS43 KAPX 191555
MTRAPN
METAR KAPN 191554Z AUTO 24005KT 10SM SCT023 05/M01 A3011 RMK AO2
SLP204 T00501011





000
SAUS43 KAPX 191455
MTRAPN
METAR KAPN 191454Z AUTO 26003KT 10SM FEW022 04/M01 A3013 RMK AO2
SLP208 T00441011 58005





000
SAUS43 KAPX 191427
MTRAPN
SPECI KAPN 191425Z AUTO VRB03KT 10SM SCT024 04/M01 A3014 RMK AO2
T00441011





000
SAUS43 KAPX 191355
MTRAPN
METAR KAPN 191354Z AUTO 22005KT 10SM BKN024 03/M01 A3014 RMK AO2
SLP213 T00281011





000
SAUS43 KAPX 191255
MTRAPN
METAR KAPN 191254Z AUTO 23004KT 10SM CLR 01/M02 A3015 RMK AO2 SLP217
T00111017





000
SAUS43 KAPX 191155
MTRAPN
METAR KAPN 191154Z AUTO 00000KT 10SM CLR 00/M02 A3014 RMK AO2 SLP214
70001 T00001022 10028 20000 53003





000
SAUS43 KAPX 191055
MTRAPN
METAR KAPN 191054Z AUTO 26003KT 10SM FEW025 01/M02 A3013 RMK AO2
SLP211 T00111017





000
SAUS43 KAPX 191031
MTRAPN
SPECI KAPN 191030Z AUTO 00000KT 10SM SCT026 02/M02 A3013 RMK AO2
T00171017





000
SAUS43 KAPX 191021
MTRAPN
SPECI KAPN 191020Z AUTO 26003KT 10SM BKN026 02/M02 A3013 RMK AO2
T00171017





000
SAUS43 KAPX 191008
MTRAPN
SPECI KAPN 191007Z AUTO 27003KT 10SM SCT026 02/M02 A3013 RMK AO2
T00171017





000
SAUS43 KAPX 190955
MTRAPN
METAR KAPN 190954Z AUTO 26003KT 10SM BKN026 02/M02 A3013 RMK AO2
SLP209 T00171022





000
SAUS43 KAPX 190955
MTRAPN
METAR KAPN 190954Z AUTO 26003KT 10SM BKN026 02/M02 A3013 RMK AO2
SLP209 T00171022





000
SAUS43 KAPX 190855
MTRAPN
METAR KAPN 190854Z AUTO 29005KT 10SM OVC027 02/M02 A3013 RMK AO2
SLP210 T00171022 51004





000
SAUS43 KAPX 190755
MTRAPN
METAR KAPN 190754Z AUTO 31004KT 10SM OVC027 02/M02 A3013 RMK AO2
SLP210 T00171017





000
SAUS43 KAPX 190655
MTRAPN
METAR KAPN 190654Z AUTO 28004KT 10SM OVC027 02/M01 A3013 RMK AO2
SLP210 T00221011





000
SAUS43 KAPX 190555
MTRAPN
METAR KAPN 190554Z AUTO VRB04KT 10SM OVC028 03/M02 A3012 RMK AO2
SLP206 T00281017 10044 20028 53001





    US Dept of Commerce
    National Oceanic and Atmospheric Administration
    National Weather Service
    1325 East West Highway
    Silver Spring, MD 20910
    Page Author: NWS Internet Services Team
Disclaimer
Information Quality
Credits
Glossary
Privacy Policy
Freedom of Information Act (FOIA)
About Us
Career Opportunities